Nearby METAR Reports

 

KIKK - Kankakee, Illinois, USA
Distance from station: S 7mi, 12km
Updated: Mon, 10-Aug-2020 3:36pm CDT
NOT Current
Mostly cloudy
Mostly cloudy
 Wind from SSW
Wind: SSW 13 mph , 20 km/h
Temperature: 90°F , 32°C
Heat Index: 107°F , 42°C
Dew Point: 79°F , 26°C
Humidity: 71%
Barometer: 29.85 inHg , 1010.8 hPa
Clouds: Mostly cloudy
Visibility: 10 miles , 16 km
Cloud details: Partly cloudy 3000 ft
Partly cloudy 3600 ft
Mostly cloudy 6000 ft
2020/08/10 20:36 KIKK 102036Z AUTO 21011KT 10SM SCT030 SCT036 BKN060 32/26 A2985 RMK AO2 LTG DSNT W THRU N
KIGQ - Chicago/Lansing, Illinois, USA
Distance from station: NNE 29mi, 47km
Updated: Tue, 11-Aug-2020 7:55pm CDT
Clear
Clear
 Wind from NE
Wind: NE 3 mph , 6 km/h
Temperature: 72°F , 22°C
Dew Point: 59°F , 15°C
Humidity: 65%
Barometer: 30.02 inHg , 1016.6 hPa
Clouds: Clear
Visibility: 10 miles , 16 km
2020/08/12 00:55 KIGQ 120055Z AUTO 05003KT 10SM CLR 22/15 A3002 RMK AO2 T02200145
 
KJOT - Joliet, Illinois, USA
Distance from station: NW 30mi, 48km
Updated: Tue, 11-Aug-2020 9:30am CDT
NOT Current

 
2020/08/11 14:30 KJOT 111430Z AUTO RMK AO2 PWINO
KLOT - Romeoville/Chi, Illinois, USA
Distance from station: NNW 34mi, 55km
Updated: Tue, 11-Aug-2020 7:55pm CDT
Clear
Clear
 Wind from E
Wind: E 7 mph , 11 km/h
Temperature: 72°F , 22°C
Dew Point: 57°F , 14°C
Humidity: 61%
Barometer: 30.01 inHg , 1016.3 hPa
Clouds: Clear
Visibility: 10 miles , 16 km
2020/08/12 00:55 KLOT 120055Z AUTO 09006KT 10SM CLR 22/14 A3001 RMK AO2 T02200140
 
KC09 - Morris-Washburn, Illinois, USA
Distance from station: WNW 36mi, 58km
Updated: Tue, 11-Aug-2020 7:55pm CDT
Clear
Clear
 Wind from calm
Wind: Calm
Temperature: 72°F , 22°C
Dew Point: 68°F , 20°C
Humidity: 88%
Barometer: 30.00 inHg , 1015.9 hPa
Clouds: Clear
Visibility: 10 miles , 16 km
2020/08/12 00:55 KC09 120055Z AUTO 00000KT 10SM CLR 22/20 A3000 RMK AO2 T02220202
KRZL - Rensselaer, Indiana, USA
Distance from station: ESE 37mi, 59km
Updated: Tue, 11-Aug-2020 7:55pm CDT
Clear
Clear
 Wind from calm
Wind: Calm
Temperature: 68°F , 20°C
Dew Point: 61°F , 16°C
Humidity: 78%
Barometer: 30.03 inHg , 1016.9 hPa
Clouds: Clear
Visibility: 10 miles , 16 km
2020/08/12 00:55 KRZL 120055Z AUTO 00000KT 10SM CLR 20/16 A3003 RMK AO2
 
KGYY - Gary Regional, Indiana, USA
Distance from station: NE 37mi, 60km
Updated: Tue, 11-Aug-2020 7:45pm CDT
Mostly cloudy
Mostly cloudy
 Wind from NE
Wind: NE 3 mph , 6 km/h
Temperature: 70°F , 21°C
Dew Point: 63°F , 17°C
Humidity: 78%
Barometer: 30.03 inHg , 1016.9 hPa
Clouds: Mostly cloudy
Visibility: 10 miles , 16 km
Cloud details: Few Clouds 6500 ft
Mostly cloudy 25000 ft
2020/08/12 00:45 KGYY 120045Z 04003KT 10SM FEW065 BKN250 21/17 A3003
KMDW - Chicago, Illinois, USA
Distance from station: N 42mi, 68km
Updated: Tue, 11-Aug-2020 7:53pm CDT
Mostly cloudy
Mostly cloudy
 Wind from E
Wind: E 6 mph , 9 km/h
Temperature: 75°F , 24°C
Dew Point: 52°F , 11°C
Humidity: 44%
Barometer: 30.01 inHg , 1016.3 hPa
Clouds: Mostly cloudy
Visibility: 10 miles , 16 km
Cloud details: Few Clouds 6500 ft
Mostly cloudy 25000 ft
2020/08/12 00:53 KMDW 120053Z 09005KT 10SM FEW065 BKN250 24/11 A3001 RMK AO2 SLP154 T02440111
 
KPNT - Pontiac, Illinois, USA
Distance from station: WSW 46mi, 74km
Updated: Tue, 11-Aug-2020 7:55pm CDT
Partly cloudy
Partly cloudy
 Wind from calm
Wind: Calm
Temperature: 72°F , 22°C
Dew Point: 70°F , 21°C
Humidity: 94%
Barometer: 30.01 inHg , 1016.3 hPa
Clouds: Partly cloudy
Visibility: 10 miles , 16 km
Cloud details: Partly cloudy 4000 ft
2020/08/12 00:55 KPNT 120055Z AUTO 00000KT 10SM SCT040 22/21 A3001 RMK AO2 T02240205
KVPZ - Valparaiso, Indiana, USA
Distance from station: ENE 47mi, 75km
Updated: Tue, 11-Aug-2020 7:56pm CDT

 Wind from NE
Wind: NE 3 mph , 6 km/h
Temperature: 66°F , 19°C
Dew Point: 61°F , 16°C
Humidity: 83%
Barometer: 30.03 inHg , 1016.9 hPa
Visibility: 10 miles , 16 km
2020/08/12 00:56 KVPZ 120056Z AUTO 05003KT 10SM 19/16 A3003 RMK AO2 SLPNO T01940161 $